AirNav   Bose ProFlight Series 2 Headset
 
 1256 users online  

56MI Beaumont Dearborn Heliport
Dearborn, Michigan, USA

GOING TO DEARBORN?


FAA INFORMATION EFFECTIVE 30 JANUARY 2020

Location

FAA Identifier: 56MI
Lat/Long: 42-17-23.7200N 083-12-56.7200W
42-17.395333N 083-12.945333W
42.2899222,-83.2157556
(estimated)
Elevation: 597 ft. / 182 m (estimated)
Variation: 06W (1995)
Time zone: UTC -5 (UTC -4 during Daylight Saving Time)
Zip code: 48124

Heliport Operations

Heliport use: Private use, MEDICAL USE.
Activation date: 08/1998
Control tower: no
ARTCC: CLEVELAND CENTER
FSS: LANSING FLIGHT SERVICE STATION
Attendance: CONTINUOUS
Segmented circle: no
Lights: FOR FLOOD LGT CALL 313-593-7720

Heliport Communications

WX ASOS at DTW (8 nm SW): 133.675 (734-955-5015)
WX ASOS at DET (12 nm NE): PHONE 313-371-9696
WX AWOS-3 at ONZ (12 nm S): 119.675 (734-692-9686)
WX ASOS at YIP (14 nm W): 132.35 (734-961-6843)
WX AWOS-3 at VLL (15 nm N): 119.475 (248-288-4649)

Nearby radio navigation aids

VOR radial/distance  VOR name  Freq  Var
DXOr061/8.1DETROIT VOR/DME113.4006W
YQGr284/17.3WINDSOR VOR/DME113.8006W
CRLr040/18.1CARLETON VOR/DME115.7003W
SVMr116/18.2SALEM VORTAC114.3003W

 
NDB name  Hdg/Dist  Freq  Var  ID
GROSSE ILE353/11.741907WRYS .-. -.-- ...
TECUMSEH069/33.523906WTCU - -.-. ..-

Heliport Services

Runway Information

Helipad H1

Dimensions: 60 x 60 ft. / 18 x 18 m
Surface: concrete
CIRCULAR PAD.
Runway edge lights: FLD
Latitude: 42-17.395333N
Longitude: 083-12.945333W
Elevation: 597.0 ft.
Traffic pattern: leftleft

Heliport Ownership and Management from official FAA records

Ownership: Privately-owned
Owner: OAKWOOD HOSPITAL
18101 OAKWOOD BLVD
DEARBORN, MI 48124-2500
Phone (313) 593-7720
Manager: SCOTT STOCKINGER
18101 OAKWOOD BLVD
DEARBORN, MI 48124-2500
Phone (313) 982-5811

Additional Remarks

FOR CD CTC DETROIT APCH AT 800-499-8181.

Instrument Procedures

There are no published instrument procedures at 56MI.

Some nearby airports with instrument procedures:

KDTW - Detroit Metropolitan Wayne County Airport (8 nm SW)
1D2 - Canton-Plymouth-Mettetal Airport (11 nm W)
KDET - Coleman A Young Municipal Airport (12 nm NE)
KONZ - Grosse Ile Municipal Airport (12 nm S)
KYIP - Willow Run Airport (14 nm W)
KVLL - Oakland/Troy Airport (15 nm N)
 
Loc | Ops | Rwys | IFR | FBO | Links
Com | Nav | Svcs | Stats | Notes
Area around 56MI (Beaumont Dearborn Heliport)
 
Road maps at: MapQuest Bing Google
 
Aerial photo
No photo
 
Sectional chart

 
Airport distance calculator
Flying to Beaumont Dearborn Heliport? Find the distance to fly.

From to 56MI

Sunrise and sunset
Times for 19-Feb-2020
 Local
(UTC-5)
 Zulu
(UTC)
Morning civil twilight06:5611:56
Sunrise07:2512:25
Sunset18:0923:09
Evening civil twilight18:3823:38

Current date and time
Zulu (UTC)  19-Feb-2020 14:32:25
Local (UTC-5)  19-Feb-2020 09:32:25
 
METAR
KDTW 
6nm SW 
191353Z 31012KT 10SM FEW030 FEW220 M06/M13 A3049 RMK AO2 SLP336 T10561133
KDET 
11nm NE 
191353Z 30008G17KT 10SM CLR M05/M13 A3048 RMK AO2 SLP332 T10501128
CYQG 
11nm E 
191400Z AUTO 33013G20KT 9SM CLR M05/M12 A3049 RMK SLP336
KONZ 
12nm S 
191415Z AUTO 31010KT 10SM CLR M04/M11 A3049 RMK AO2 T10421110
KYIP 
15nm W 
191353Z 33013G19KT 10SM CLR M05/M13 A3050 RMK AO2 SLP335 T10501133
KVLL 
15nm N 
191416Z AUTO 31011G15KT 10SM CLR M06/M13 A3051 RMK AO2 T10601131
TAF
KDTW 
6nm SW 
191404Z 1914/2018 31013KT P6SM SKC FM192000 31010KT P6SM FEW035 FM200200 31007KT P6SM BKN090 BKN200 FM201300 33005KT P6SM SCT030 BKN200
KDET 
11nm NE 
191405Z 1914/2012 31013KT P6SM SKC FM192000 31010KT P6SM FEW035 FM200200 31007KT P6SM BKN090 BKN200
CYQG 
11nm E 
191141Z 1912/2012 31013G23KT P6SM SCT030 TEMPO 1912/1914 BKN020 FM191500 30010KT P6SM FEW025 RMK FCST BASED ON AUTO OBS. NXT FCST BY 191800Z
KYIP 
15nm W 
190535Z 1906/2006 28009KT P6SM SKC FM190700 29010KT P6SM SCT028 BKN035 FM191200 28010KT P6SM SKC FM200000 27008KT P6SM SCT100 BKN250
NOTAMs
Click for the latest NOTAMs
NOTAMs are issued by the DoD/FAA and will open in a separate window not controlled by AirNav.

 

 
 

Would you like to see your business listed on this page?

 If your business provides an interesting product or service to pilots, flight crews, aircraft, or users of the Beaumont Dearborn Heliport, you should consider listing it here.  To start the listing process, click on the button below
 
Add a business
 

Other Pages about Beaumont Dearborn Heliport

Update a link
 
Copyright © AirNav, LLC. All rights reserved. Privacy Policy  Contact